Time;durP1;ratioP1;P1;durP2;ratioP2;P2;SDS_P1;SDS_P2;PMS_P1;PMS_P2;Temp;Humidity;BMP_temperature;BMP_pressure;BME280_temperature;BME280_humidity;BME280_pressure;Samples;Min_cycle;Max_cycle;Signal;HPM_P1;HPM_P2
2021/07/28 00:00:49;;;;;;;16.63;11.23;;;16.20;99.90;;;;;;5074410;28;20489;-65
2021/07/28 00:03:14;;;;;;;13.52;11.63;;;16.20;99.90;;;;;;5076969;28;20478;-66
2021/07/28 00:05:40;;;;;;;13.52;10.75;;;16.20;99.90;;;;;;5076310;28;20028;-65
2021/07/28 00:08:06;;;;;;;11.95;10.35;;;16.20;99.90;;;;;;5068325;28;20101;-65
2021/07/28 00:10:31;;;;;;;13.75;11.23;;;16.20;99.90;;;;;;5059365;28;20081;-65
2021/07/28 00:12:57;;;;;;;14.10;10.77;;;16.20;99.90;;;;;;5067505;28;20398;-65
2021/07/28 00:15:23;;;;;;;12.60;10.82;;;16.20;99.90;;;;;;5072254;28;20012;-65
2021/07/28 00:17:54;;;;;;;13.73;10.98;;;16.10;99.90;;;;;;5066007;28;20021;-65
2021/07/28 00:23:12;;;;;;;15.63;11.82;;;16.20;99.90;;;;;;5068828;28;20020;-65
2021/07/28 00:23:14;;;;;;;15.98;11.10;;;16.10;99.90;;;;;;5075465;28;20390;-66
2021/07/28 00:25:43;;;;;;;13.30;11.50;;;16.10;99.90;;;;;;5058118;28;20454;-66
2021/07/28 00:28:10;;;;;;;13.57;11.55;;;16.10;99.90;;;;;;5051629;28;20027;-66
2021/07/28 00:30:35;;;;;;;14.95;11.60;;;16.10;99.90;;;;;;5067265;28;20020;-65
2021/07/28 00:33:01;;;;;;;14.43;11.57;;;16.00;99.90;;;;;;5073845;28;20016;-66
2021/07/28 00:35:27;;;;;;;13.35;11.88;;;16.00;99.90;;;;;;5055356;28;20120;-65
2021/07/28 00:37:55;;;;;;;16.02;11.13;;;16.00;99.90;;;;;;5054224;28;20481;-65
2021/07/28 00:40:20;;;;;;;13.57;11.82;;;16.00;99.90;;;;;;5068890;28;20016;-65
2021/07/28 00:42:46;;;;;;;13.48;11.73;;;16.00;99.90;;;;;;5069559;28;20084;-66
2021/07/28 00:45:12;;;;;;;17.35;12.38;;;16.00;99.90;;;;;;5078275;28;20469;-66
2021/07/28 00:47:37;;;;;;;13.85;11.45;;;16.00;99.90;;;;;;5070319;28;20051;-65
2021/07/28 00:50:04;;;;;;;12.65;10.65;;;16.00;99.90;;;;;;5073797;28;20016;-65
2021/07/28 00:52:32;;;;;;;13.18;11.18;;;16.00;99.90;;;;;;5074447;28;20020;-65
2021/07/28 00:54:57;;;;;;;12.45;11.15;;;16.00;99.90;;;;;;5072838;28;20035;-65
2021/07/28 00:57:23;;;;;;;13.68;12.10;;;16.00;99.90;;;;;;5075276;28;20020;-65
2021/07/28 00:59:49;;;;;;;19.98;12.45;;;15.90;99.90;;;;;;5067360;28;20095;-65
2021/07/28 01:02:14;;;;;;;15.95;12.30;;;15.90;99.90;;;;;;5047970;28;20032;-65
2021/07/28 01:04:40;;;;;;;16.85;12.07;;;15.90;99.90;;;;;;5072921;28;20099;-65
2021/07/28 01:07:05;;;;;;;16.58;12.63;;;15.90;99.90;;;;;;5074988;28;20032;-66
2021/07/28 01:09:31;;;;;;;15.02;11.98;;;15.90;99.90;;;;;;5066692;28;20501;-65
2021/07/28 01:12:03;;;;;;;13.27;10.82;;;15.90;99.90;;;;;;5074516;28;20020;-66
2021/07/28 01:14:29;;;;;;;17.08;12.07;;;15.90;99.90;;;;;;5061995;28;20041;-65
2021/07/28 01:16:55;;;;;;;15.15;12.10;;;15.90;99.90;;;;;;5073097;28;20441;-66
2021/07/28 01:19:25;;;;;;;15.75;11.32;;;15.80;99.90;;;;;;5058197;28;20046;-65
2021/07/28 01:21:52;;;;;;;13.40;10.60;;;15.90;99.90;;;;;;5072632;28;20021;-65
2021/07/28 01:24:18;;;;;;;14.15;10.25;;;15.90;99.90;;;;;;5054575;28;20024;-65
2021/07/28 01:26:44;;;;;;;12.85;10.63;;;15.90;99.90;;;;;;5062868;28;20017;-65
2021/07/28 01:29:13;;;;;;;14.02;11.40;;;15.90;99.90;;;;;;5057065;28;20016;-66
2021/07/28 01:31:40;;;;;;;14.07;11.35;;;15.90;99.90;;;;;;5055601;28;20020;-66
2021/07/28 01:34:07;;;;;;;15.75;11.43;;;15.90;99.90;;;;;;5053189;28;20031;-66
2021/07/28 01:36:34;;;;;;;13.55;10.38;;;15.90;99.90;;;;;;5060540;28;20012;-65
2021/07/28 01:38:59;;;;;;;17.38;11.45;;;15.90;99.90;;;;;;5055944;28;20017;-65
2021/07/28 01:41:26;;;;;;;13.90;11.40;;;15.90;99.90;;;;;;5064487;28;20433;-66
2021/07/28 01:43:51;;;;;;;13.95;10.73;;;15.90;99.90;;;;;;5074066;28;20016;-66
2021/07/28 01:46:18;;;;;;;14.45;10.45;;;15.90;99.90;;;;;;5071180;28;20042;-66
2021/07/28 01:48:44;;;;;;;15.73;10.93;;;15.90;99.90;;;;;;5061375;28;20586;-66
2021/07/28 01:51:09;;;;;;;13.23;9.90;;;15.80;99.90;;;;;;5058175;28;20032;-66
2021/07/28 01:53:36;;;;;;;16.08;11.45;;;15.80;99.90;;;;;;5074056;28;20057;-65
2021/07/28 01:56:02;;;;;;;13.32;10.30;;;15.80;99.90;;;;;;5073948;28;20091;-66
2021/07/28 01:58:28;;;;;;;14.63;10.90;;;15.80;99.90;;;;;;5069130;28;20744;-65
2021/07/28 02:00:54;;;;;;;16.73;10.25;;;15.80;99.90;;;;;;5062830;28;20492;-65
2021/07/28 02:03:19;;;;;;;16.13;10.88;;;15.80;99.90;;;;;;5072437;28;20029;-66
2021/07/28 02:05:45;;;;;;;14.32;11.07;;;15.70;99.90;;;;;;5074407;28;20029;-66
2021/07/28 02:08:13;;;;;;;16.17;10.70;;;15.70;99.90;;;;;;5062606;28;20421;-65
2021/07/28 02:10:46;;;;;;;14.20;11.73;;;15.70;99.90;;;;;;5069505;28;20016;-65
2021/07/28 02:13:13;;;;;;;18.98;11.13;;;15.70;99.90;;;;;;5061563;28;20048;-66
2021/07/28 02:15:39;;;;;;;13.73;10.82;;;15.60;99.90;;;;;;5069891;28;20031;-66
2021/07/28 02:18:05;;;;;;;14.80;11.13;;;15.60;99.90;;;;;;5063595;28;20012;-65
2021/07/28 02:20:31;;;;;;;13.65;11.35;;;15.60;99.90;;;;;;5045583;28;20013;-66
2021/07/28 02:22:57;;;;;;;14.40;10.82;;;15.60;99.90;;;;;;5055051;28;20047;-65
2021/07/28 02:25:23;;;;;;;15.73;10.43;;;15.60;99.90;;;;;;5062193;28;20025;-65
2021/07/28 02:27:49;;;;;;;13.85;10.25;;;15.60;99.90;;;;;;5071015;28;20021;-66
2021/07/28 02:30:16;;;;;;;14.35;11.35;;;15.50;99.90;;;;;;5060796;28;20048;-66
2021/07/28 02:32:42;;;;;;;16.38;10.95;;;15.50;99.90;;;;;;5055430;28;20133;-66
2021/07/28 02:35:08;;;;;;;12.02;10.00;;;15.50;99.90;;;;;;5071507;28;20023;-66
2021/07/28 02:37:34;;;;;;;14.63;10.93;;;15.50;99.90;;;;;;5071664;28;20019;-65
2021/07/28 02:40:00;;;;;;;16.00;11.38;;;15.50;99.90;;;;;;5073960;28;20061;-66
2021/07/28 02:42:26;;;;;;;14.90;11.27;;;15.50;99.90;;;;;;5067953;28;20107;-66
2021/07/28 02:44:51;;;;;;;12.75;10.50;;;15.50;99.90;;;;;;5055442;28;20035;-66
2021/07/28 02:47:17;;;;;;;17.88;12.02;;;15.50;99.90;;;;;;5060498;28;20069;-66
2021/07/28 02:49:42;;;;;;;13.60;10.48;;;15.50;99.90;;;;;;5055682;28;20025;-66
2021/07/28 02:52:08;;;;;;;18.60;11.65;;;15.50;99.90;;;;;;5073162;28;20024;-65
2021/07/28 02:54:34;;;;;;;16.55;11.10;;;15.50;99.90;;;;;;5071742;28;20031;-66
2021/07/28 02:56:59;;;;;;;14.63;10.80;;;15.60;99.90;;;;;;5073941;28;20051;-66
2021/07/28 02:59:25;;;;;;;14.48;10.30;;;15.50;99.90;;;;;;5067807;28;20063;-66
2021/07/28 03:01:52;;;;;;;14.20;10.70;;;15.60;99.90;;;;;;5048353;28;20031;-66
2021/07/28 03:04:18;;;;;;;19.95;11.38;;;15.60;99.90;;;;;;5057454;28;20396;-66
2021/07/28 03:06:44;;;;;;;15.50;12.07;;;15.60;99.90;;;;;;5076823;28;20123;-66
2021/07/28 03:09:10;;;;;;;14.80;11.55;;;15.50;99.90;;;;;;5061563;28;20512;-65
2021/07/28 03:11:35;;;;;;;17.90;12.85;;;15.50;99.90;;;;;;5077696;28;20016;-66
2021/07/28 03:14:01;;;;;;;15.18;11.88;;;15.50;99.90;;;;;;5062122;28;20477;-66
2021/07/28 03:16:26;;;;;;;16.10;12.23;;;15.50;99.90;;;;;;5075802;28;20051;-66
2021/07/28 03:18:52;;;;;;;15.95;11.57;;;15.50;99.90;;;;;;5060195;28;20099;-65
2021/07/28 03:21:18;;;;;;;19.73;12.85;;;15.50;99.90;;;;;;5075093;28;20032;-66
2021/07/28 03:23:43;;;;;;;17.38;12.30;;;15.40;99.90;;;;;;5058367;28;20564;-66
2021/07/28 03:26:09;;;;;;;15.52;12.25;;;15.40;99.90;;;;;;5061390;28;20021;-66
2021/07/28 03:28:35;;;;;;;16.92;12.07;;;15.40;99.90;;;;;;5055354;28;20108;-66
2021/07/28 03:31:01;;;;;;;15.52;11.95;;;15.40;99.90;;;;;;5060550;28;20021;-66
2021/07/28 03:33:26;;;;;;;16.95;12.90;;;15.40;99.90;;;;;;5075643;28;20020;-66
2021/07/28 03:35:52;;;;;;;18.25;12.50;;;15.40;99.90;;;;;;5057731;28;20439;-66
2021/07/28 03:38:17;;;;;;;16.10;13.13;;;15.40;99.90;;;;;;5056440;28;20056;-66
2021/07/28 03:40:43;;;;;;;21.00;13.23;;;15.50;99.90;;;;;;5076188;28;20052;-66
2021/07/28 03:43:09;;;;;;;15.57;12.43;;;15.50;99.90;;;;;;5054152;28;20070;-66
2021/07/28 03:45:34;;;;;;;16.95;12.73;;;15.50;99.90;;;;;;5076142;28;20374;-66
2021/07/28 03:48:00;;;;;;;16.35;12.80;;;15.50;99.90;;;;;;5069513;28;20456;-65
2021/07/28 03:50:26;;;;;;;17.00;12.70;;;15.50;99.90;;;;;;5075352;28;20021;-66
2021/07/28 03:52:51;;;;;;;16.75;12.20;;;15.50;99.90;;;;;;5076505;28;20017;-65
2021/07/28 03:55:17;;;;;;;18.70;12.63;;;15.50;99.90;;;;;;5074571;28;20462;-65
2021/07/28 03:57:43;;;;;;;16.48;13.43;;;15.60;99.90;;;;;;5075712;28;20498;-65
2021/07/28 04:00:09;;;;;;;22.20;14.02;;;15.60;99.90;;;;;;5065433;28;20104;-66
2021/07/28 04:02:34;;;;;;;21.75;13.23;;;15.60;99.90;;;;;;5061435;28;20390;-65
2021/07/28 04:05:02;;;;;;;15.27;12.63;;;15.60;99.90;;;;;;5055362;28;20024;-66
2021/07/28 04:07:27;;;;;;;17.20;12.27;;;15.60;99.90;;;;;;5070938;28;20047;-66
2021/07/28 04:09:53;;;;;;;16.42;12.15;;;15.70;99.90;;;;;;5065642;28;20016;-66
2021/07/28 04:12:19;;;;;;;21.10;13.02;;;15.70;99.90;;;;;;5073284;28;20044;-66
2021/07/28 04:14:45;;;;;;;18.55;12.90;;;15.70;99.90;;;;;;5055785;28;20114;-66
2021/07/28 04:17:11;;;;;;;13.48;11.48;;;15.70;99.90;;;;;;5075430;28;20486;-66
2021/07/28 04:19:37;;;;;;;16.42;11.85;;;15.80;99.90;;;;;;5074369;28;20031;-65
2021/07/28 04:22:03;;;;;;;12.63;11.30;;;15.80;99.90;;;;;;5076201;28;20103;-65
2021/07/28 04:24:28;;;;;;;13.00;11.40;;;15.80;99.90;;;;;;5070788;28;20060;-65
2021/07/28 04:26:54;;;;;;;15.30;11.35;;;15.80;99.90;;;;;;5073499;28;20055;-66
2021/07/28 04:29:19;;;;;;;17.05;11.80;;;15.80;99.90;;;;;;5071127;28;20462;-66
2021/07/28 04:31:45;;;;;;;15.77;12.30;;;15.80;99.90;;;;;;5071507;28;20027;-66
2021/07/28 04:34:10;;;;;;;19.73;11.68;;;15.80;99.90;;;;;;5074794;28;20025;-66
2021/07/28 04:36:36;;;;;;;14.38;11.60;;;15.80;99.90;;;;;;5073072;28;20020;-66
2021/07/28 04:39:02;;;;;;;15.65;11.45;;;15.90;99.90;;;;;;5072885;28;20400;-65
2021/07/28 04:41:45;;;;;;;13.85;10.85;;;15.90;99.90;;;;;;5070413;28;20490;-66
2021/07/28 04:44:11;;;;;;;19.38;12.10;;;16.00;99.90;;;;;;5061179;28;20025;-66
2021/07/28 04:46:36;;;;;;;18.75;12.50;;;16.00;99.90;;;;;;5068212;28;20041;-66
2021/07/28 04:49:02;;;;;;;14.98;11.65;;;16.00;99.90;;;;;;5073640;28;20025;-65
2021/07/28 04:51:27;;;;;;;14.02;12.00;;;16.00;99.90;;;;;;5075756;28;20033;-65
2021/07/28 04:54:16;;;;;;;14.60;11.90;;;16.10;99.90;;;;;;5061840;28;20025;-65
2021/07/28 04:56:42;;;;;;;13.43;11.00;;;16.10;99.90;;;;;;5064825;28;20029;-66
2021/07/28 04:59:07;;;;;;;15.40;11.43;;;16.10;99.90;;;;;;5064569;28;20079;-65
2021/07/28 05:01:33;;;;;;;15.20;11.38;;;16.10;99.90;;;;;;5068978;28;20115;-66
2021/07/28 05:03:58;;;;;;;13.45;11.68;;;16.20;99.90;;;;;;5056848;28;20055;-66
2021/07/28 05:06:24;;;;;;;16.38;12.18;;;16.20;99.90;;;;;;5076244;28;20059;-66
2021/07/28 05:08:49;;;;;;;15.85;12.45;;;16.30;99.90;;;;;;5074266;28;20028;-66
2021/07/28 05:11:15;;;;;;;14.70;11.52;;;16.30;99.90;;;;;;5067673;28;20019;-66
2021/07/28 05:13:40;;;;;;;16.63;13.45;;;16.40;99.90;;;;;;5093526;28;20093;-66
2021/07/28 05:16:06;;;;;;;13.57;11.27;;;16.40;99.90;;;;;;5093585;28;20479;-66
2021/07/28 05:18:31;;;;;;;16.38;13.60;;;16.40;99.90;;;;;;5093180;28;20442;-66
2021/07/28 05:20:57;;;;;;;13.98;12.00;;;16.40;99.90;;;;;;5075433;28;20533;-66
2021/07/28 05:23:23;;;;;;;14.55;12.70;;;16.50;99.90;;;;;;5093319;28;20063;-66
2021/07/28 05:25:49;;;;;;;15.05;12.57;;;16.50;99.90;;;;;;5074699;28;20542;-66
2021/07/28 05:28:14;;;;;;;16.30;13.82;;;16.50;99.90;;;;;;5093048;28;20079;-66
2021/07/28 05:30:40;;;;;;;20.67;14.77;;;16.50;99.90;;;;;;5092959;28;20020;-66
2021/07/28 05:33:05;;;;;;;16.92;13.85;;;16.60;99.90;;;;;;5092985;28;20469;-66
2021/07/28 05:35:31;;;;;;;16.23;12.80;;;16.60;99.90;;;;;;5093208;28;20477;-66
2021/07/28 05:38:01;;;;;;;17.17;13.35;;;16.60;99.90;;;;;;5093167;28;20385;-66
2021/07/28 05:40:27;;;;;;;17.85;15.40;;;16.70;99.90;;;;;;5093154;28;20028;-66
2021/07/28 05:42:52;;;;;;;16.55;14.57;;;16.70;99.90;;;;;;5093097;28;20024;-66
2021/07/28 05:45:18;;;;;;;17.65;14.38;;;16.70;99.90;;;;;;5093122;28;20481;-66
2021/07/28 05:47:45;;;;;;;19.45;15.23;;;16.80;99.90;;;;;;5092717;28;20048;-66
2021/07/28 05:50:15;;;;;;;15.82;14.00;;;16.80;99.90;;;;;;5074799;28;20393;-65
2021/07/28 05:52:41;;;;;;;15.68;13.82;;;16.90;99.90;;;;;;5074105;28;20025;-66
2021/07/28 05:55:08;;;;;;;20.73;15.35;;;16.90;99.90;;;;;;5092646;28;20036;-66
2021/07/28 05:57:33;;;;;;;16.05;14.10;;;17.00;99.90;;;;;;5092858;28;20019;-65
2021/07/28 05:59:59;;;;;;;21.55;15.07;;;17.00;99.90;;;;;;5074697;28;20111;-66
2021/07/28 06:02:24;;;;;;;21.52;16.08;;;17.00;99.90;;;;;;5092688;28;20389;-65
2021/07/28 06:04:50;;;;;;;17.50;14.80;;;17.10;99.90;;;;;;5091432;28;20032;-66
2021/07/28 06:07:15;;;;;;;16.08;14.18;;;17.10;99.90;;;;;;5092611;28;20036;-66
2021/07/28 06:09:53;;;;;;;16.63;14.82;;;17.10;99.90;;;;;;5092762;28;20111;-66
2021/07/28 06:16:13;;;;;;;20.92;14.60;;;17.30;99.90;;;;;;5028975;28;20510;-66
2021/07/28 06:18:38;;;;;;;17.83;13.38;;;17.30;99.90;;;;;;5010530;28;20045;-66
2021/07/28 06:21:04;;;;;;;20.30;15.55;;;17.40;99.90;;;;;;5002484;28;20042;-65
2021/07/28 06:23:29;;;;;;;18.33;16.20;;;17.50;99.90;;;;;;5045441;28;20039;-66
2021/07/28 06:25:55;;;;;;;19.85;15.73;;;17.50;99.90;;;;;;5092532;28;20021;-66
2021/07/28 06:28:21;;;;;;;17.77;15.10;;;17.60;99.90;;;;;;5092603;28;20023;-66
2021/07/28 06:30:49;;;;;;;18.73;16.33;;;17.60;99.90;;;;;;5092683;28;20028;-66
2021/07/28 06:33:15;;;;;;;16.27;13.95;;;17.60;99.90;;;;;;5074282;28;20020;-66
2021/07/28 06:35:40;;;;;;;17.40;14.13;;;17.70;99.90;;;;;;5092459;28;20043;-65
2021/07/28 06:38:12;;;;;;;17.13;14.32;;;17.70;99.90;;;;;;5096476;28;20469;-65
2021/07/28 06:40:37;;;;;;;17.35;13.45;;;17.80;99.90;;;;;;5096667;28;20103;-65
2021/07/28 06:43:03;;;;;;;15.95;13.00;;;17.80;99.90;;;;;;5092628;28;20103;-65
2021/07/28 06:45:35;;;;;;;15.73;12.80;;;17.90;99.90;;;;;;5091897;28;20028;-66
2021/07/28 06:48:00;;;;;;;13.38;11.10;;;18.00;99.90;;;;;;5064932;28;20498;-65
2021/07/28 06:50:26;;;;;;;13.52;12.13;;;18.00;99.90;;;;;;5067712;28;20024;-66
2021/07/28 06:52:54;;;;;;;14.00;12.50;;;18.10;99.90;;;;;;5093234;28;20016;-65
2021/07/28 06:55:19;;;;;;;12.32;10.57;;;18.20;99.90;;;;;;5095805;28;20028;-65
2021/07/28 06:57:56;;;;;;;13.57;12.18;;;18.30;99.90;;;;;;5077807;28;20103;-66
2021/07/28 07:00:22;;;;;;;13.10;11.68;;;18.30;99.90;;;;;;5087331;28;20020;-65
2021/07/28 07:02:47;;;;;;;12.63;9.80;;;18.20;99.90;;;;;;5081329;28;20030;-66
2021/07/28 07:05:15;;;;;;;11.80;8.45;;;18.20;99.90;;;;;;5092624;28;20036;-65
2021/07/28 07:07:40;;;;;;;11.18;8.30;;;18.30;99.90;;;;;;5095686;28;20025;-65
2021/07/28 07:10:08;;;;;;;10.18;7.88;;;18.30;99.90;;;;;;5095725;28;20024;-65
2021/07/28 07:12:34;;;;;;;11.10;8.50;;;18.30;99.90;;;;;;5095969;28;20070;-66
2021/07/28 07:15:00;;;;;;;11.90;8.75;;;18.30;99.90;;;;;;5077674;28;20027;-65
2021/07/28 07:17:25;;;;;;;12.90;8.35;;;18.40;99.90;;;;;;5077479;28;20016;-65
2021/07/28 07:19:51;;;;;;;9.82;8.60;;;18.50;99.90;;;;;;5052824;28;20127;-66
2021/07/28 07:22:16;;;;;;;11.23;8.93;;;18.50;99.90;;;;;;5045973;28;20036;-66
2021/07/28 07:25:02;;;;;;;11.80;7.78;;;18.50;99.60;;;;;;5048799;28;20027;-65
2021/07/28 07:27:27;;;;;;;10.82;8.80;;;18.50;99.40;;;;;;5073866;28;20016;-65
2021/07/28 07:29:54;;;;;;;13.10;8.85;;;18.50;99.20;;;;;;5070966;28;20111;-65
2021/07/28 07:32:23;;;;;;;11.32;8.68;;;18.50;99.20;;;;;;5089678;28;21285;-65
2021/07/28 07:34:50;;;;;;;;;;;18.60;99.20;;;;;;5095495;28;20023;-65
2021/07/28 07:37:15;;;;;;;12.23;7.38;;;18.60;99.00;;;;;;5076817;28;19958;-65
2021/07/28 07:39:41;;;;;;;10.35;7.18;;;18.50;98.70;;;;;;5074981;28;20430;-65
2021/07/28 07:42:06;;;;;;;10.20;7.03;;;18.60;98.30;;;;;;5074686;28;20024;-66
2021/07/28 07:44:32;;;;;;;8.13;6.00;;;18.70;97.80;;;;;;5074644;28;20029;-66
2021/07/28 07:47:26;;;;;;;7.47;6.15;;;18.80;97.30;;;;;;5073941;28;20048;-65
2021/07/28 07:49:51;;;;;;;8.65;6.00;;;18.90;96.80;;;;;;5067296;28;20035;-65
2021/07/28 07:52:17;;;;;;;6.20;5.25;;;19.00;96.80;;;;;;5094009;28;20016;-65
2021/07/28 07:54:42;;;;;;;10.23;6.38;;;19.20;96.50;;;;;;5093968;28;20035;-66
2021/07/28 07:57:08;;;;;;;12.38;6.25;;;19.30;95.80;;;;;;5094606;28;20043;-65
2021/07/28 07:59:33;;;;;;;7.88;5.07;;;19.30;95.20;;;;;;5084039;28;20410;-65
2021/07/28 08:01:59;;;;;;;6.55;4.30;;;19.40;95.20;;;;;;5091658;28;20039;-65
2021/07/28 08:04:24;;;;;;;8.93;4.45;;;19.50;94.80;;;;;;5091706;28;20023;-65
2021/07/28 08:06:50;;;;;;;6.10;4.30;;;19.50;94.60;;;;;;5088781;28;20498;-65
2021/07/28 08:09:16;;;;;;;6.63;4.45;;;19.60;94.40;;;;;;5094283;28;20046;-65
2021/07/28 08:11:44;;;;;;;8.30;4.28;;;19.60;94.00;;;;;;5092882;28;20412;-65
2021/07/28 08:14:10;;;;;;;5.15;4.07;;;19.70;93.80;;;;;;5094295;28;20016;-65
2021/07/28 08:16:38;;;;;;;6.30;4.15;;;19.70;93.40;;;;;;5094190;28;20026;-65
2021/07/28 08:19:04;;;;;;;4.07;3.35;;;19.60;93.00;;;;;;5086552;28;20095;-66
2021/07/28 08:21:30;;;;;;;5.25;4.07;;;19.70;92.70;;;;;;5081009;28;20516;-66
2021/07/28 08:23:55;;;;;;;5.50;4.03;;;19.70;92.50;;;;;;5073819;28;20477;-66
2021/07/28 08:26:21;;;;;;;6.20;3.75;;;19.70;92.20;;;;;;5073969;28;20032;-66
2021/07/28 08:28:46;;;;;;;6.88;3.92;;;19.60;92.30;;;;;;5084798;28;20095;-66
2021/07/28 08:31:12;;;;;;;8.63;3.72;;;19.70;92.60;;;;;;5083340;28;20031;-65
2021/07/28 08:33:37;;;;;;;7.32;3.50;;;19.70;92.20;;;;;;5094327;28;20023;-66
2021/07/28 08:36:03;;;;;;;4.65;3.50;;;19.80;92.20;;;;;;5089369;28;20516;-66
2021/07/28 08:38:29;;;;;;;3.85;3.35;;;19.90;92.40;;;;;;5094071;28;20036;-66
2021/07/28 08:41:00;;;;;;;5.35;3.50;;;20.00;92.60;;;;;;5092674;28;20489;-65
2021/07/28 08:43:37;;;;;;;5.20;3.25;;;20.10;92.20;;;;;;5052149;28;20047;-65
2021/07/28 08:46:05;;;;;;;4.45;3.28;;;20.20;91.80;;;;;;5063621;28;20394;-66
2021/07/28 08:49:09;;;;;;;;;;;;;;;;;;;;;
2021/07/28 08:51:35;;;;;;;7.30;3.65;;;20.30;91.40;;;;;;5092449;28;20024;-65
2021/07/28 08:54:01;;;;;;;4.88;3.40;;;20.30;90.90;;;;;;5093144;28;20520;-66
2021/07/28 08:56:26;;;;;;;5.70;2.80;;;20.40;90.70;;;;;;5094020;28;20049;-66
2021/07/28 08:58:52;;;;;;;3.17;2.15;;;20.40;90.40;;;;;;5092667;28;20389;-65
2021/07/28 09:01:17;;;;;;;8.02;2.33;;;20.40;90.10;;;;;;5093202;28;20074;-66
2021/07/28 09:03:45;;;;;;;3.78;2.35;;;20.40;90.00;;;;;;5093150;28;20047;-65
2021/07/28 09:06:26;;;;;;;3.08;2.15;;;20.50;90.20;;;;;;5093737;28;20504;-66
2021/07/28 09:08:59;;;;;;;4.30;2.47;;;20.60;89.90;;;;;;5093401;28;20046;-65
2021/07/28 09:11:25;;;;;;;3.53;2.30;;;20.70;89.80;;;;;;5093557;28;20020;-66
2021/07/28 09:14:13;;;;;;;4.50;1.98;;;20.80;89.40;;;;;;5060047;28;20018;-65
2021/07/28 09:16:39;;;;;;;6.10;3.08;;;20.90;89.20;;;;;;5088853;28;20512;-65
2021/07/28 09:19:04;;;;;;;4.75;2.30;;;21.00;87.70;;;;;;5085746;28;20036;-66
2021/07/28 09:21:33;;;;;;;4.88;2.30;;;21.00;87.50;;;;;;5086754;28;20063;-66
2021/07/28 09:24:09;;;;;;;3.20;1.98;;;21.00;87.40;;;;;;5088819;28;20032;-66
2021/07/28 09:26:51;;;;;;;4.03;2.50;;;21.10;86.90;;;;;;5088324;28;20477;-65
2021/07/28 09:29:27;;;;;;;5.35;2.20;;;21.10;86.70;;;;;;5077488;28;20063;-66
2021/07/28 09:31:55;;;;;;;3.58;2.30;;;21.10;86.90;;;;;;5070798;28;20119;-65
2021/07/28 09:34:24;;;;;;;5.07;1.95;;;21.10;86.70;;;;;;5088095;28;20020;-65
2021/07/28 09:37:13;;;;;;;4.30;1.98;;;21.20;85.70;;;;;;5069818;28;20028;-66
2021/07/28 09:39:43;;;;;;;4.13;2.00;;;21.30;85.90;;;;;;5079056;28;20054;-65
2021/07/28 09:42:14;;;;;;;5.75;2.50;;;21.30;85.60;;;;;;5074714;28;20054;-66
2021/07/28 09:44:45;;;;;;;4.97;2.33;;;21.30;84.80;;;;;;5074102;28;20389;-66
2021/07/28 09:47:15;;;;;;;4.93;2.13;;;21.40;85.50;;;;;;5085605;28;20048;-66
2021/07/28 09:49:42;;;;;;;2.55;1.77;;;21.50;84.80;;;;;;5087868;28;20474;-65
2021/07/28 09:52:34;;;;;;;8.90;2.00;;;21.60;83.60;;;;;;5063621;28;20024;-66
2021/07/28 09:55:29;;;;;;;2.58;1.50;;;21.70;83.80;;;;;;5081742;28;20016;-66
2021/07/28 09:57:57;;;;;;;2.53;2.00;;;21.70;83.50;;;;;;5060869;28;20119;-66
2021/07/28 10:00:23;;;;;;;3.83;2.17;;;21.80;83.20;;;;;;5089755;28;20031;-66
2021/07/28 10:03:07;;;;;;;2.95;1.83;;;21.80;82.20;;;;;;5062459;28;20114;-66
2021/07/28 10:05:50;;;;;;;2.47;1.70;;;21.80;82.40;;;;;;5089211;28;20095;-66
2021/07/28 10:08:16;;;;;;;3.95;2.13;;;21.80;82.10;;;;;;5085456;28;20039;-66
2021/07/28 10:10:44;;;;;;;3.78;1.90;;;21.80;82.60;;;;;;5075782;28;20017;-65
2021/07/28 10:13:10;;;;;;;4.03;2.30;;;21.70;81.60;;;;;;5067568;28;20020;-65
2021/07/28 10:15:37;;;;;;;5.25;1.83;;;21.60;81.80;;;;;;5091526;28;20074;-66
2021/07/28 10:18:03;;;;;;;3.72;2.15;;;21.60;82.20;;;;;;5085593;28;20477;-66
2021/07/28 10:20:29;;;;;;;4.85;1.90;;;21.60;83.00;;;;;;5082436;28;20028;-65
2021/07/28 10:22:56;;;;;;;4.38;1.88;;;21.70;81.90;;;;;;5080009;28;20600;-65
2021/07/28 10:25:22;;;;;;;3.38;1.83;;;21.90;82.80;;;;;;5075932;28;20481;-65
2021/07/28 10:27:54;;;;;;;3.40;2.10;;;22.00;82.20;;;;;;5063136;28;20082;-65
2021/07/28 10:30:22;;;;;;;2.63;1.30;;;22.20;81.10;;;;;;5087515;28;20020;-65
2021/07/28 10:32:48;;;;;;;3.20;1.90;;;22.30;80.00;;;;;;5084398;28;20020;-65
2021/07/28 10:35:16;;;;;;;4.10;2.05;;;22.30;79.80;;;;;;5080822;28;20036;-65
2021/07/28 10:37:42;;;;;;;4.80;2.50;;;22.40;79.70;;;;;;5088216;28;20035;-65
2021/07/28 10:40:31;;;;;;;2.95;1.65;;;22.50;78.90;;;;;;5081166;28;20711;-65
2021/07/28 10:42:57;;;;;;;8.45;1.77;;;22.70;78.10;;;;;;5084782;28;20044;-65
2021/07/28 10:45:24;;;;;;;4.35;2.13;;;22.70;76.70;;;;;;5085303;28;20056;-65
2021/07/28 10:47:51;;;;;;;3.50;1.65;;;22.40;76.40;;;;;;5091635;28;20055;-66
2021/07/28 10:53:46;;;;;;;2.28;1.20;;;22.50;77.60;;;;;;5075652;28;20115;-66
2021/07/28 10:56:12;;;;;;;3.63;1.58;;;22.60;77.60;;;;;;5046794;28;20111;-66
2021/07/28 10:58:37;;;;;;;3.13;1.90;;;22.70;77.10;;;;;;5079317;28;20628;-65
2021/07/28 11:01:03;;;;;;;3.15;1.40;;;22.80;77.10;;;;;;5086903;28;20036;-66
2021/07/28 11:03:30;;;;;;;4.20;1.70;;;23.00;77.20;;;;;;5079209;28;20036;-66
2021/07/28 11:06:16;;;;;;;4.38;2.08;;;23.20;75.60;;;;;;5070635;28;20059;-66
2021/07/28 11:08:42;;;;;;;5.68;1.35;;;23.30;74.20;;;;;;5085112;28;20052;-66
2021/07/28 11:11:08;;;;;;;4.07;1.35;;;23.40;73.00;;;;;;5090945;28;20098;-66
2021/07/28 11:13:34;;;;;;;1.77;1.23;;;23.40;72.10;;;;;;5085150;28;20019;-66
2021/07/28 11:16:02;;;;;;;3.53;1.10;;;23.50;72.20;;;;;;5080272;28;20020;-65
2021/07/28 11:18:40;;;;;;;2.65;1.10;;;23.50;72.00;;;;;;5077628;28;20038;-66
2021/07/28 11:21:09;;;;;;;2.00;0.95;;;23.60;72.10;;;;;;5071382;28;20416;-66
2021/07/28 11:23:35;;;;;;;5.25;1.20;;;23.70;71.20;;;;;;5067346;28;20017;-67
2021/07/28 11:26:03;;;;;;;4.03;1.20;;;23.60;71.00;;;;;;5072524;28;20017;-66
2021/07/28 11:28:28;;;;;;;4.28;1.50;;;23.70;69.50;;;;;;5073394;28;20020;-66
2021/07/28 11:31:02;;;;;;;5.00;1.50;;;23.70;68.90;;;;;;5074511;28;20466;-66
2021/07/28 11:33:29;;;;;;;4.15;1.27;;;23.50;69.10;;;;;;5074402;28;20025;-65
2021/07/28 11:35:56;;;;;;;3.15;1.10;;;23.30;70.20;;;;;;5055882;28;20061;-66
2021/07/28 11:38:23;;;;;;;2.47;1.20;;;23.10;69.80;;;;;;5067340;28;20355;-66
2021/07/28 11:41:00;;;;;;;2.55;1.08;;;23.00;70.60;;;;;;5074962;28;20028;-65
2021/07/28 11:43:30;;;;;;;1.88;1.33;;;23.00;70.10;;;;;;5073187;28;20016;-66
2021/07/28 11:46:04;;;;;;;2.97;1.45;;;23.00;69.80;;;;;;5073349;28;20017;-67
2021/07/28 11:48:37;;;;;;;2.50;1.10;;;23.10;70.30;;;;;;5075467;28;20036;-66
2021/07/28 11:51:08;;;;;;;5.00;1.05;;;23.40;70.80;;;;;;5074112;28;20478;-66
2021/07/28 11:53:35;;;;;;;2.28;1.10;;;23.50;69.40;;;;;;5076103;28;20083;-66
2021/07/28 11:56:12;;;;;;;2.55;1.20;;;23.50;69.60;;;;;;5073339;28;20040;-66
2021/07/28 11:58:54;;;;;;;5.20;1.25;;;23.50;68.90;;;;;;5073519;28;20036;-66
2021/07/28 12:02:11;;;;;;;;;;;;;;;;;;;;;
2021/07/28 12:04:37;;;;;;;2.63;1.10;;;23.20;69.20;;;;;;5073199;28;20437;-66
2021/07/28 12:07:10;;;;;;;2.20;1.17;;;23.00;70.50;;;;;;5078736;28;20104;-66
2021/07/28 12:09:36;;;;;;;5.68;1.20;;;23.20;70.70;;;;;;5053704;28;20083;-66
2021/07/28 12:12:02;;;;;;;4.65;1.27;;;23.40;70.20;;;;;;5072965;28;20017;-66
2021/07/28 12:14:29;;;;;;;4.50;1.20;;;23.50;69.70;;;;;;5074041;28;20020;-66
2021/07/28 12:16:57;;;;;;;3.88;1.00;;;23.70;69.60;;;;;;5074017;28;20052;-66
2021/07/28 12:19:43;;;;;;;;;;;;;;;;;;;;;
2021/07/28 12:25:25;;;;;;;3.13;0.90;;;23.10;69.30;;;;;;5073488;28;20036;-66
2021/07/28 12:27:55;;;;;;;2.67;1.13;;;23.00;70.40;;;;;;5073615;28;20047;-66
2021/07/28 12:30:28;;;;;;;2.67;1.50;;;23.10;70.40;;;;;;5055771;28;20371;-67
2021/07/28 12:33:05;;;;;;;3.85;1.33;;;23.10;70.20;;;;;;5073769;28;20154;-65
2021/07/28 12:35:40;;;;;;;2.05;1.15;;;23.30;70.40;;;;;;5080091;28;20027;-66
2021/07/28 12:38:11;;;;;;;2.38;0.90;;;23.40;70.50;;;;;;5080689;28;20040;-65
2021/07/28 12:40:40;;;;;;;2.88;1.50;;;23.50;70.50;;;;;;5069334;28;20496;-66
2021/07/28 12:43:24;;;;;;;;;;;;;;;;;;;;;
2021/07/28 12:46:16;;;;;;;5.50;1.23;;;23.40;69.00;;;;;;5093879;28;20024;-66
2021/07/28 12:48:42;;;;;;;3.10;1.55;;;23.30;69.40;;;;;;5090113;28;20040;-66
2021/07/28 12:51:09;;;;;;;4.20;1.50;;;23.10;70.40;;;;;;5094061;28;20127;-66
2021/07/28 12:53:35;;;;;;;2.65;1.50;;;23.00;70.30;;;;;;5073971;28;20454;-66
2021/07/28 12:56:26;;;;;;;;;;;;;;;;;;;;;